Time;durP1;ratioP1;P1;durP2;ratioP2;P2;SDS_P1;SDS_P2;PMS_P1;PMS_P2;Temp;Humidity;BMP_temperature;BMP_pressure;BME280_temperature;BME280_humidity;BME280_pressure;Samples;Min_cycle;Max_cycle;Signal;HPM_P1;HPM_P2
2022/10/03 00:02:01;;;;;;;1.80;0.90;;;;;;;11.57;72.70;98030.46;25144;1312;3070456;-70
2022/10/03 00:04:45;;;;;;;2.90;1.10;;;;;;;11.30;73.86;98032.54;25168;1311;3049085;-69
2022/10/03 00:07:46;;;;;;;2.20;0.90;;;;;;;11.25;74.15;98036.14;25194;1312;3051818;-68
2022/10/03 00:10:27;;;;;;;1.20;0.80;;;;;;;11.33;74.56;98039.66;25164;1312;3054776;-68
2022/10/03 00:13:11;;;;;;;1.50;0.80;;;;;;;11.95;73.36;98036.71;25178;1312;3056572;-70
2022/10/03 00:16:07;;;;;;;1.50;1.00;;;;;;;12.39;71.67;98039.86;25112;1312;3049645;-70
2022/10/03 00:19:12;;;;;;;1.20;0.80;;;;;;;12.20;71.56;98039.84;25189;1312;3054456;-71
2022/10/03 00:22:00;;;;;;;1.90;1.00;;;;;;;12.12;71.40;98034.92;25179;1312;3053426;-70
2022/10/03 00:24:49;;;;;;;1.50;0.90;;;;;;;11.73;72.61;98047.98;25110;1312;3071886;-72
2022/10/03 00:27:41;;;;;;;2.30;1.00;;;;;;;11.43;73.72;98055.96;25114;1316;3052384;-72
2022/10/03 00:30:23;;;;;;;2.40;1.10;;;;;;;11.40;74.06;98058.54;25127;1314;3055409;-71
2022/10/03 00:33:17;;;;;;;1.10;0.60;;;;;;;11.45;74.46;98057.90;25128;1313;3052430;-71
2022/10/03 00:36:04;;;;;;;1.00;0.60;;;;;;;12.22;72.74;98051.74;25163;1314;3056016;-72
2022/10/03 00:38:51;;;;;;;3.80;0.70;;;;;;;12.35;71.50;98055.66;25159;1311;3049828;-71
2022/10/03 00:41:29;;;;;;;2.20;0.70;;;;;;;12.30;70.70;98055.92;25128;1313;3054413;-71
2022/10/03 00:44:09;;;;;;;1.60;0.90;;;;;;;11.92;71.85;98060.65;25114;1312;3055462;-69
2022/10/03 00:46:50;;;;;;;1.90;1.10;;;;;;;11.77;72.75;98057.77;25144;1312;3069443;-71
2022/10/03 00:49:30;;;;;;;1.30;0.80;;;;;;;11.51;73.80;98063.69;25170;1315;3048498;-70
2022/10/03 00:52:11;;;;;;;1.10;0.70;;;;;;;11.27;74.90;98066.79;25172;1311;3050850;-72
2022/10/03 00:54:51;;;;;;;0.80;0.60;;;;;;;11.27;75.06;98064.55;25156;1315;3052899;-71
2022/10/03 00:57:29;;;;;;;1.40;0.60;;;;;;;12.10;73.09;98063.52;25111;1313;3056000;-67
2022/10/03 01:00:12;;;;;;;0.90;0.70;;;;;;;12.74;70.39;98063.39;25131;1312;3049691;-70
2022/10/03 01:03:06;;;;;;;3.90;0.80;;;;;;;12.44;70.38;98059.09;25172;1311;3054739;-70
2022/10/03 01:06:03;;;;;;;1.20;0.90;;;;;;;11.82;72.22;98060.54;25119;1311;3050590;-67
2022/10/03 01:09:07;;;;;;;2.00;0.70;;;;;;;11.57;72.90;98054.77;25154;1315;3069408;-72
2022/10/03 01:11:39;;;;;;;2.40;1.00;;;;;;;11.20;74.34;98067.92;25183;1316;3052130;-70
2022/10/03 01:14:14;;;;;;;1.20;0.90;;;;;;;11.16;74.10;98072.71;25185;1312;3028053;-72
2022/10/03 01:17:11;;;;;;;2.10;0.90;;;;;;;10.93;75.33;98070.80;25144;1312;3051284;-71
2022/10/03 01:19:52;;;;;;;0.70;0.60;;;;;;;11.00;75.06;98083.16;25130;1312;3059128;-72
2022/10/03 01:22:36;;;;;;;2.00;0.70;;;;;;;11.75;72.48;98061.27;25133;1312;3049287;-72
2022/10/03 01:25:18;;;;;;;1.60;0.90;;;;;;;12.00;71.40;98076.10;25180;1313;3055976;-72
2022/10/03 01:30:50;;;;;;;6.90;0.80;;;;;;;11.53;71.52;98081.95;25166;1312;3067993;-70
2022/10/03 01:33:33;;;;;;;1.00;0.80;;;;;;;11.21;72.66;98086.27;25187;1313;3051911;-69
2022/10/03 01:36:02;;;;;;;1.40;1.10;;;;;;;11.03;73.20;98082.25;25151;1312;3052101;-69
2022/10/03 01:38:43;;;;;;;1.50;0.90;;;;;;;10.82;73.94;98092.86;25267;1312;3026343;-70
2022/10/03 01:41:41;;;;;;;1.60;1.00;;;;;;;10.51;75.34;98099.46;25136;1312;3048514;-70
2022/10/03 01:44:15;;;;;;;1.00;0.60;;;;;;;10.72;75.12;98089.83;25100;1312;3055397;-68
2022/10/03 01:46:47;;;;;;;1.50;0.80;;;;;;;11.24;73.95;98088.64;25127;1312;3054122;-68
2022/10/03 01:49:18;;;;;;;0.60;0.60;;;;;;;11.75;71.57;98091.27;25126;1316;3027596;-66
2022/10/03 01:52:09;;;;;;;1.80;0.80;;;;;;;11.35;72.38;98098.39;25161;1313;3026456;-69
2022/10/03 01:54:38;;;;;;;1.40;0.90;;;;;;;11.11;73.44;98107.11;25152;1312;3053225;-68
2022/10/03 01:57:45;;;;;;;1.10;0.90;;;;;;;10.91;74.12;98101.80;25162;1312;3027040;-71
2022/10/03 02:00:19;;;;;;;2.00;1.20;;;;;;;10.63;75.30;98111.41;25144;1312;3052915;-68
2022/10/03 02:02:54;;;;;;;1.70;1.10;;;;;;;10.34;76.90;98115.73;25205;1312;3052640;-68
2022/10/03 02:05:34;;;;;;;1.70;0.80;;;;;;;10.39;77.28;98116.48;25150;1311;3051404;-68
2022/10/03 02:08:13;;;;;;;1.20;0.70;;;;;;;11.11;75.70;98117.73;25143;1312;3069401;-71
2022/10/03 02:10:45;;;;;;;1.20;0.80;;;;;;;11.18;75.39;98119.98;25173;1312;3051096;-71
2022/10/03 02:13:29;;;;;;;1.20;1.00;;;;;;;11.09;75.57;98122.52;25142;1312;3026488;-70
2022/10/03 02:16:29;;;;;;;1.50;0.90;;;;;;;10.97;75.86;98125.41;25174;1311;3055164;-70
2022/10/03 02:19:42;;;;;;;1.50;1.00;;;;;;;10.74;77.05;98127.67;25132;1312;3057071;-68
2022/10/03 02:22:27;;;;;;;1.40;1.20;;;;;;;10.49;77.91;98138.48;25069;1318;3050079;-65
2022/10/03 02:25:31;;;;;;;2.90;1.00;;;;;;;10.48;78.59;98131.17;25178;1312;3055859;-69
2022/10/03 02:28:35;;;;;;;1.50;0.90;;;;;;;10.96;77.50;98129.71;25060;1317;3051614;-68
2022/10/03 02:31:32;;;;;;;2.90;1.50;;;;;;;11.04;76.63;98134.52;25149;1312;3071351;-67
2022/10/03 02:34:06;;;;;;;1.40;0.90;;;;;;;11.00;76.53;98139.52;25054;1313;3052358;-69
2022/10/03 02:36:52;;;;;;;4.20;1.60;;;;;;;10.75;77.34;98138.11;25128;1313;3052359;-70
2022/10/03 02:39:45;;;;;;;2.80;1.30;;;;;;;10.50;78.52;98140.80;25183;1312;3052937;-71
2022/10/03 02:42:32;;;;;;;2.60;1.30;;;;;;;10.31;79.31;98146.52;25173;1312;3058694;-67
2022/10/03 02:45:46;;;;;;;1.00;0.90;;;;;;;10.37;79.86;98148.54;25189;1312;3050491;-69
2022/10/03 02:48:46;;;;;;;2.30;1.10;;;;;;;11.34;76.98;98150.92;25168;1312;3052327;-70
2022/10/03 02:51:21;;;;;;;2.50;1.30;;;;;;;11.36;76.10;98155.79;25216;1312;3051113;-67
2022/10/03 02:54:14;;;;;;;2.80;1.30;;;;;;;11.00;77.00;98160.44;25211;1312;3069108;-71
2022/10/03 02:56:56;;;;;;;1.70;1.30;;;;;;;10.93;77.23;98161.55;25142;1312;3049384;-68
2022/10/03 02:59:37;;;;;;;4.50;1.20;;;;;;;10.70;77.72;98160.41;25164;1312;3055448;-69
2022/10/03 03:02:24;;;;;;;2.20;1.30;;;;;;;10.54;78.55;98159.23;25117;1312;3053484;-71
2022/10/03 03:05:05;;;;;;;2.00;0.80;;;;;;;10.60;78.71;98164.55;25226;1312;3055090;-71
2022/10/03 03:07:38;;;;;;;3.00;1.10;;;;;;;11.17;77.22;98164.73;25166;1312;3050280;-70
2022/10/03 03:10:22;;;;;;;1.40;0.90;;;;;;;11.65;75.08;98170.23;25155;1313;3026455;-70
2022/10/03 03:13:16;;;;;;;5.10;1.10;;;;;;;11.19;76.00;98173.02;25155;1311;3050428;-69
2022/10/03 03:16:11;;;;;;;6.10;1.00;;;;;;;11.34;75.45;98169.86;25163;1312;3071418;-69
2022/10/03 03:18:47;;;;;;;1.70;1.10;;;;;;;11.06;76.29;98178.84;25164;1312;3052110;-69
2022/10/03 03:21:26;;;;;;;3.20;1.10;;;;;;;10.78;77.29;98187.45;25165;1312;3053092;-71
2022/10/03 03:24:12;;;;;;;3.70;0.70;;;;;;;10.60;78.53;98193.61;25257;1311;3055225;-70
2022/10/03 03:26:53;;;;;;;4.80;1.00;;;;;;;11.38;76.26;98194.36;25140;1312;3059187;-72
2022/10/03 03:29:36;;;;;;;1.10;0.80;;;;;;;11.41;75.46;98194.66;25192;1311;3049997;-72
2022/10/03 03:32:20;;;;;;;1.90;1.00;;;;;;;11.43;75.24;98203.09;25166;1312;3055895;-71
2022/10/03 03:35:13;;;;;;;2.80;1.70;;;;;;;11.42;74.88;98203.56;25194;1311;3053950;-70
2022/10/03 03:38:00;;;;;;;2.10;1.20;;;;;;;11.06;76.26;98203.16;25186;1312;3068493;-69
2022/10/03 03:40:55;;;;;;;3.40;1.40;;;;;;;10.86;76.96;98210.27;25166;1312;3052607;-69
2022/10/03 03:43:44;;;;;;;2.30;1.10;;;;;;;10.60;78.34;98215.30;25130;1315;3055065;-70
2022/10/03 03:46:22;;;;;;;1.20;0.80;;;;;;;10.63;78.75;98215.97;25165;1312;3052893;-68
2022/10/03 03:49:00;;;;;;;1.00;0.70;;;;;;;11.43;76.41;98218.20;25183;1312;3059389;-66
2022/10/03 03:51:57;;;;;;;2.50;1.10;;;;;;;11.54;75.16;98223.55;25159;1311;3052082;-68
2022/10/03 03:54:36;;;;;;;2.60;1.00;;;;;;;11.55;74.83;98217.14;25164;1312;3054969;-69
2022/10/03 03:57:27;;;;;;;2.10;1.10;;;;;;;11.34;75.61;98218.23;25200;1312;3050123;-70
2022/10/03 04:00:17;;;;;;;1.40;1.00;;;;;;;10.91;77.18;98222.85;25129;1311;3071288;-66
2022/10/03 04:03:08;;;;;;;2.60;1.30;;;;;;;10.75;78.30;98223.36;25202;1315;3052164;-66
2022/10/03 04:05:37;;;;;;;2.60;1.10;;;;;;;10.79;77.92;98223.11;25140;1312;3054868;-66
2022/10/03 04:08:34;;;;;;;1.00;0.70;;;;;;;10.80;78.06;98231.24;25223;1311;3026842;-70
2022/10/03 04:11:22;;;;;;;3.20;0.90;;;;;;;11.64;75.96;98238.17;25180;1313;3059517;-71
2022/10/03 04:14:13;;;;;;;2.00;1.20;;;;;;;11.71;74.42;98237.34;25156;1312;3052452;-71
2022/10/03 04:19:57;;;;;;;3.20;1.70;;;;;;;11.14;76.49;98241.81;25221;1312;3053605;-68
2022/10/03 04:22:35;;;;;;;4.80;1.60;;;;;;;10.86;77.38;98247.52;25151;1311;3068034;-66
2022/10/03 04:25:40;;;;;;;3.10;1.50;;;;;;;10.48;79.26;98249.02;25157;1311;3049199;-69
2022/10/03 04:28:33;;;;;;;1.50;1.00;;;;;;;10.65;79.13;98250.28;25101;1312;3052926;-69
2022/10/03 04:31:15;;;;;;;3.30;1.00;;;;;;;11.47;76.73;98246.97;25144;1312;3055124;-71
2022/10/03 04:33:52;;;;;;;2.30;1.30;;;;;;;11.58;75.54;98244.64;25275;1312;3058203;-68
2022/10/03 04:36:52;;;;;;;5.90;1.60;;;;;;;11.16;76.34;98247.02;25190;1311;3050555;-68
2022/10/03 04:39:33;;;;;;;3.40;1.50;;;;;;;10.97;77.51;98255.73;25192;1312;3052671;-67
2022/10/03 04:42:30;;;;;;;2.20;1.60;;;;;;;10.76;78.23;98262.74;25114;1311;3054590;-72
2022/10/03 04:45:28;;;;;;;2.00;1.50;;;;;;;10.69;78.38;98266.41;25179;1311;3071200;-69
2022/10/03 04:48:15;;;;;;;1.40;0.60;;;;;;;10.88;78.13;98265.23;25166;1312;3049686;-70
2022/10/03 04:50:56;;;;;;;1.80;1.00;;;;;;;11.52;76.61;98263.40;25208;1312;3055430;-72
2022/10/03 04:53:39;;;;;;;1.50;1.00;;;;;;;11.66;75.35;98269.23;25171;1311;3053384;-75
2022/10/03 04:56:30;;;;;;;2.40;1.30;;;;;;;11.49;75.12;98278.83;25199;1311;3059108;-72
2022/10/03 04:59:25;;;;;;;2.70;1.30;;;;;;;10.99;77.06;98270.15;25168;1311;3048836;-74
2022/10/03 05:02:00;;;;;;;3.00;1.40;;;;;;;11.10;76.95;98272.75;25226;1312;3055805;-73
2022/10/03 05:04:32;;;;;;;1.70;1.20;;;;;;;10.94;77.53;98274.05;25176;1312;3050751;-73
2022/10/03 05:07:42;;;;;;;4.00;1.50;;;;;;;10.76;78.09;98286.38;25119;1311;3026809;-73
2022/10/03 05:10:49;;;;;;;2.00;1.00;;;;;;;10.67;79.15;98290.39;25151;1312;3050918;-71
2022/10/03 05:13:21;;;;;;;2.60;1.00;;;;;;;11.71;76.03;98290.40;25136;1312;3053059;-74
2022/10/03 05:16:17;;;;;;;4.00;1.70;;;;;;;11.64;74.92;98291.47;25186;1311;3026881;-72
2022/10/03 05:19:18;;;;;;;3.00;1.70;;;;;;;11.44;75.82;98290.31;25192;1312;3056359;-71
2022/10/03 05:21:54;;;;;;;2.80;1.70;;;;;;;11.14;76.75;98292.59;25162;1312;3050255;-68
2022/10/03 05:24:43;;;;;;;2.90;1.40;;;;;;;10.99;77.69;98297.34;25207;1312;3057397;-71
2022/10/03 05:27:26;;;;;;;3.70;1.50;;;;;;;10.85;77.82;98304.95;25146;1312;3051351;-69
2022/10/03 05:30:15;;;;;;;2.10;1.60;;;;;;;10.86;78.45;98301.20;25107;1312;3068255;-67
2022/10/03 05:32:50;;;;;;;2.10;0.90;;;;;;;10.89;78.72;98312.35;25136;1311;3051498;-69
2022/10/03 05:35:41;;;;;;;2.60;1.20;;;;;;;11.85;75.67;98313.20;25184;1312;3027975;-70
2022/10/03 05:38:33;;;;;;;4.70;1.20;;;;;;;12.19;73.21;98309.86;25163;1312;3052780;-70
2022/10/03 05:41:15;;;;;;;3.60;1.60;;;;;;;11.82;74.93;98319.42;25148;1311;3060440;-73
2022/10/03 05:43:59;;;;;;;3.20;1.20;;;;;;;11.84;74.55;98315.39;25137;1312;3050244;-71
2022/10/03 05:46:47;;;;;;;2.70;1.40;;;;;;;11.82;74.45;98323.00;25121;1312;3052864;-69
2022/10/03 05:49:45;;;;;;;2.20;1.00;;;;;;;11.62;75.23;98329.03;25134;1311;3051761;-70
2022/10/03 05:52:49;;;;;;;3.10;1.50;;;;;;;11.60;74.88;98334.98;25177;1311;3069267;-72
2022/10/03 05:55:36;;;;;;;2.10;0.90;;;;;;;11.65;75.25;98337.72;25122;1312;3051616;-70
2022/10/03 05:58:11;;;;;;;1.40;0.90;;;;;;;12.39;73.19;98353.14;25148;1311;3052848;-71
2022/10/03 06:00:47;;;;;;;3.30;1.30;;;;;;;12.46;71.72;98359.05;25108;1311;3055815;-72
2022/10/03 06:03:49;;;;;;;3.00;1.20;;;;;;;12.37;72.14;98354.66;25120;1314;3056447;-71
2022/10/03 06:06:23;;;;;;;3.10;1.30;;;;;;;12.23;72.93;98355.48;25126;1314;3050452;-68
2022/10/03 06:08:54;;;;;;;5.30;1.40;;;;;;;12.03;72.97;98352.30;25134;1312;3053621;-70
2022/10/03 06:11:33;;;;;;;3.00;1.40;;;;;;;11.91;73.92;98355.39;25176;1311;3026974;-69
2022/10/03 06:14:27;;;;;;;2.90;1.50;;;;;;;11.86;74.09;98362.23;25111;1313;3071460;-69
2022/10/03 06:16:57;;;;;;;1.40;1.00;;;;;;;11.97;74.39;98364.16;25093;1312;3051903;-68
2022/10/03 06:19:53;;;;;;;3.10;1.10;;;;;;;12.64;72.62;98371.38;25212;1312;3027427;-73
2022/10/03 06:22:28;;;;;;;2.10;1.00;;;;;;;12.71;71.16;98370.05;25170;1312;3069367;-70
2022/10/03 06:25:22;;;;;;;3.00;1.50;;;;;;;12.59;71.25;98377.71;25191;1312;3047847;-70
2022/10/03 06:28:29;;;;;;;4.00;1.40;;;;;;;12.64;71.04;98377.71;25138;1311;3053208;-67
2022/10/03 06:31:35;;;;;;;3.10;1.40;;;;;;;12.69;70.95;98375.16;25166;1314;3052451;-73
2022/10/03 06:34:35;;;;;;;3.90;1.50;;;;;;;12.28;71.85;98385.83;25103;1312;3058736;-69
2022/10/03 06:37:16;;;;;;;2.20;1.40;;;;;;;12.40;72.47;98371.13;25160;1312;3051532;-67
2022/10/03 06:39:48;;;;;;;4.60;1.60;;;;;;;12.53;71.88;98381.72;25174;1311;3053979;-72
2022/10/03 06:42:24;;;;;;;0.80;0.60;;;;;;;12.48;72.25;98378.30;25170;1311;3026328;-69
2022/10/03 06:45:22;;;;;;;4.40;1.20;;;;;;;13.00;70.65;98378.90;25176;1313;3067235;-69
2022/10/03 06:48:12;;;;;;;2.80;1.40;;;;;;;13.44;68.79;98380.64;25180;1311;3049420;-70
2022/10/03 06:51:14;;;;;;;5.80;1.40;;;;;;;13.33;68.67;98384.66;25144;1311;3054908;-69
2022/10/03 06:54:21;;;;;;;3.00;1.50;;;;;;;13.19;68.57;98390.30;25178;1311;3055642;-69
2022/10/03 06:57:15;;;;;;;4.40;1.70;;;;;;;13.10;68.12;98411.10;25177;1312;3056904;-67
2022/10/03 07:00:02;;;;;;;5.00;1.70;;;;;;;12.94;68.30;98406.17;25218;1311;3049818;-71
2022/10/03 07:02:41;;;;;;;5.20;1.50;;;;;;;12.78;68.62;98401.78;25125;1312;3055685;-73
2022/10/03 07:05:38;;;;;;;5.30;2.00;;;;;;;12.76;69.52;98402.45;25183;1311;3054619;-73
2022/10/03 07:08:26;;;;;;;3.70;2.10;;;;;;;12.82;69.24;98412.70;25135;1312;3068766;-69
2022/10/03 07:11:16;;;;;;;3.80;1.90;;;;;;;12.74;68.97;98418.63;25093;1314;3052231;-69
2022/10/03 07:14:17;;;;;;;5.00;1.80;;;;;;;12.72;68.82;98413.83;25203;1311;3052171;-71
2022/10/03 07:16:58;;;;;;;5.80;2.00;;;;;;;12.64;69.37;98419.66;25143;1311;3053444;-68
2022/10/03 07:19:46;;;;;;;4.40;1.80;;;;;;;12.72;69.95;98423.23;25177;1311;3056193;-70
2022/10/03 07:22:38;;;;;;;3.40;1.30;;;;;;;12.74;70.25;98418.25;25097;1311;3050076;-72
2022/10/03 07:25:31;;;;;;;4.10;1.20;;;;;;;13.52;68.04;98418.91;25138;1312;3053570;-70
2022/10/03 07:28:21;;;;;;;3.60;1.70;;;;;;;13.84;66.73;98416.54;25185;1312;3051138;-71
2022/10/03 07:31:24;;;;;;;5.20;2.30;;;;;;;13.86;66.43;98425.15;25247;1312;3071368;-69
2022/10/03 07:34:22;;;;;;;3.10;1.80;;;;;;;13.30;68.05;98433.29;25173;1312;3050193;-69
2022/10/03 07:40:43;;;;;;;3.60;2.00;;;;;;;13.28;67.50;98440.48;25165;1312;3055518;-67
2022/10/03 07:43:27;;;;;;;3.60;1.80;;;;;;;13.06;68.05;98439.02;25002;1317;3056168;-71
2022/10/03 07:46:14;;;;;;;5.70;2.30;;;;;;;12.94;68.38;98426.18;25090;1311;3053025;-70
2022/10/03 07:49:02;;;;;;;3.50;1.90;;;;;;;12.84;69.41;98423.34;25160;1312;3052098;-69
2022/10/03 07:51:53;;;;;;;4.10;1.90;;;;;;;12.98;69.36;98429.94;25314;1312;3053861;-67
2022/10/03 07:54:34;;;;;;;3.30;1.90;;;;;;;13.15;68.78;98424.77;25120;1311;3068703;-68
2022/10/03 07:57:11;;;;;;;4.60;2.00;;;;;;;13.29;67.96;98439.90;25159;1312;3052071;-68
2022/10/03 08:00:06;;;;;;;4.10;2.00;;;;;;;13.28;67.58;98442.59;25173;1312;3055847;-70
2022/10/03 08:03:19;;;;;;;3.00;1.90;;;;;;;13.27;67.67;98442.13;25165;1312;3055436;-72
2022/10/03 08:05:55;;;;;;;2.40;1.70;;;;;;;13.39;67.01;98443.73;25154;1311;3059172;-65
2022/10/03 08:08:37;;;;;;;4.80;2.00;;;;;;;13.35;66.29;98458.20;25173;1312;3052597;-71
2022/10/03 08:11:35;;;;;;;3.10;1.70;;;;;;;13.34;65.93;98451.77;25139;1315;3052868;-64
2022/10/03 08:14:41;;;;;;;4.20;1.90;;;;;;;13.17;66.38;98453.57;25191;1312;3050800;-69
2022/10/03 08:17:46;;;;;;;3.10;1.70;;;;;;;13.42;65.77;98455.85;25159;1311;3071428;-71
2022/10/03 08:20:24;;;;;;;4.20;2.00;;;;;;;13.28;65.40;98463.00;25137;1311;3049610;-72
2022/10/03 08:23:28;;;;;;;3.50;1.90;;;;;;;13.21;66.09;98465.17;25180;1311;3054818;-65
2022/10/03 08:26:12;;;;;;;6.50;2.10;;;;;;;13.37;66.22;98455.36;25149;1311;3052584;-70
2022/10/03 08:29:19;;;;;;;4.30;2.20;;;;;;;13.46;66.19;98468.30;25118;1312;3059665;-71
2022/10/03 08:31:58;;;;;;;4.80;1.80;;;;;;;13.44;65.68;98468.67;25143;1311;3052306;-69
2022/10/03 08:34:39;;;;;;;3.60;2.20;;;;;;;13.41;65.51;98461.02;25170;1312;3054326;-68
2022/10/03 08:37:27;;;;;;;3.10;1.70;;;;;;;13.37;65.32;98466.80;25157;1310;3051471;-70
2022/10/03 08:40:35;;;;;;;3.10;1.90;;;;;;;13.43;65.05;98465.59;25110;1311;3071443;-72
2022/10/03 08:43:42;;;;;;;6.00;2.20;;;;;;;13.42;65.20;98459.02;25201;1311;3052058;-69
2022/10/03 08:46:45;;;;;;;3.30;1.90;;;;;;;13.55;64.84;98463.50;25156;1310;3054842;-70
2022/10/03 08:49:52;;;;;;;7.30;2.00;;;;;;;13.72;64.49;98468.31;25174;1312;3054824;-69
2022/10/03 08:52:34;;;;;;;3.80;2.10;;;;;;;13.60;65.42;98470.44;25115;1312;3056293;-76
2022/10/03 08:55:31;;;;;;;3.40;2.10;;;;;;;13.83;64.47;98488.61;25185;1311;3049868;-74
2022/10/03 08:58:34;;;;;;;5.20;2.00;;;;;;;13.75;63.11;98485.09;25181;1312;3051803;-69
2022/10/03 09:01:19;;;;;;;5.40;2.30;;;;;;;13.71;63.16;98484.39;25205;1312;3051220;-68
2022/10/03 09:04:16;;;;;;;5.40;1.90;;;;;;;13.72;63.77;98483.98;25139;1312;3069993;-70
2022/10/03 09:07:23;;;;;;;5.10;2.10;;;;;;;13.69;62.82;98489.52;25213;1311;3051582;-72
2022/10/03 09:10:31;;;;;;;4.60;2.40;;;;;;;13.55;63.69;98482.30;25179;1311;3052328;-69
2022/10/03 09:13:13;;;;;;;5.50;2.10;;;;;;;13.66;63.83;98483.25;25134;1311;3052641;-72
2022/10/03 09:15:49;;;;;;;5.10;2.00;;;;;;;13.52;63.94;98485.33;25184;1312;3057065;-77
2022/10/03 09:18:46;;;;;;;4.50;2.40;;;;;;;13.56;63.87;98483.39;25158;1312;3049076;-69
2022/10/03 09:21:33;;;;;;;3.90;2.10;;;;;;;13.72;63.74;98491.84;24483;1312;4377733;-66
2022/10/03 09:24:32;;;;;;;3.90;1.90;;;;;;;13.71;63.72;98507.42;25208;1312;3054539;-70
2022/10/03 09:27:32;;;;;;;8.00;2.20;;;;;;;13.72;63.30;98509.46;25166;1311;3071583;-72
2022/10/03 09:30:11;;;;;;;5.30;2.00;;;;;;;13.89;63.30;98497.73;25150;1311;3051986;-75
2022/10/03 09:33:11;;;;;;;3.70;1.70;;;;;;;13.92;63.07;98504.20;25170;1312;3056887;-70
2022/10/03 09:35:55;;;;;;;5.10;2.10;;;;;;;13.87;62.45;98512.03;25201;1312;3053820;-70
2022/10/03 09:38:30;;;;;;;4.20;2.10;;;;;;;13.66;62.31;98528.34;25219;1311;3056585;-71
2022/10/03 09:41:40;;;;;;;4.80;2.10;;;;;;;13.87;62.14;98512.52;25144;1312;3053028;-67
2022/10/03 09:44:18;;;;;;;3.90;1.90;;;;;;;14.01;61.55;98520.44;25100;1315;3055701;-75
2022/10/03 09:50:07;;;;;;;5.30;2.20;;;;;;;14.09;61.47;98521.30;25124;1312;3071562;-71
2022/10/03 09:53:05;;;;;;;5.70;2.20;;;;;;;14.30;60.76;98522.97;25128;1312;3052638;-70
2022/10/03 09:55:48;;;;;;;4.60;1.80;;;;;;;14.46;59.87;98524.68;25178;1311;3055300;-71
2022/10/03 09:58:40;;;;;;;3.90;1.60;;;;;;;14.77;58.99;98514.83;25137;1312;3054120;-71
2022/10/03 10:01:21;;;;;;;3.50;1.70;;;;;;;14.82;58.04;98496.74;25165;1312;3058733;-70
2022/10/03 10:04:18;;;;;;;3.80;2.10;;;;;;;14.63;56.71;98524.73;25158;1311;3049738;-71
2022/10/03 10:07:18;;;;;;;4.20;1.60;;;;;;;14.52;57.66;98516.52;25143;1311;3052910;-69
2022/10/03 10:10:06;;;;;;;10.40;2.50;;;;;;;14.32;59.11;98526.33;25190;1312;3051441;-69
2022/10/03 10:12:35;;;;;;;3.80;2.00;;;;;;;14.34;59.68;98526.46;25162;1312;3071260;-72
2022/10/03 10:15:23;;;;;;;3.70;1.90;;;;;;;14.34;59.56;98533.31;25180;1311;3029850;-67
2022/10/03 10:18:01;;;;;;;4.30;1.30;;;;;;;14.42;57.72;98534.23;25183;1311;3051121;-71
2022/10/03 10:20:45;;;;;;;3.90;1.50;;;;;;;14.31;57.50;98542.44;25183;1315;3071243;-73
2022/10/03 10:23:20;;;;;;;4.70;1.60;;;;;;;14.31;58.29;98534.65;25124;1311;3051645;-71
2022/10/03 10:26:37;;;;;;;4.40;1.40;;;;;;;14.35;58.12;98541.15;25205;1312;3055150;-68
2022/10/03 10:29:34;;;;;;;2.60;1.30;;;;;;;14.36;57.92;98537.63;25049;1316;3055701;-72
2022/10/03 10:32:34;;;;;;;3.80;1.60;;;;;;;14.46;56.85;98543.55;25128;1312;3055747;-72
2022/10/03 10:35:41;;;;;;;3.90;1.60;;;;;;;14.65;56.16;98532.98;25131;1312;3049184;-69
2022/10/03 10:38:26;;;;;;;5.00;1.50;;;;;;;14.65;56.19;98545.52;25210;1311;3052940;-70
2022/10/03 10:41:23;;;;;;;4.60;1.60;;;;;;;14.58;57.12;98537.70;25206;1311;3053729;-76
2022/10/03 10:45:27;;;;;;;3.50;1.30;;;;;;;14.37;58.44;98548.92;31545;1319;3026382;-70
2022/10/03 10:48:15;;;;;;;3.30;1.40;;;;;;;14.74;57.57;98560.33;25000;1322;3051408;-69
2022/10/03 10:50:49;;;;;;;5.80;1.60;;;;;;;14.93;56.63;98551.16;25071;1322;3053011;-68
2022/10/03 10:53:56;;;;;;;3.50;1.60;;;;;;;15.03;56.69;98555.20;25207;1321;3026948;-77
2022/10/03 10:57:02;;;;;;;4.30;1.50;;;;;;;15.24;55.97;98550.62;25051;1322;3052744;-68
2022/10/03 10:59:37;;;;;;;2.50;1.30;;;;;;;15.29;56.27;98540.63;24613;1319;4021719;-67
2022/10/03 11:02:25;;;;;;;3.80;1.50;;;;;;;15.34;55.42;98554.56;25411;1318;3057349;-65
2022/10/03 11:05:19;;;;;;;2.90;1.20;;;;;;;15.31;55.78;98556.50;25087;1318;3051278;-70
2022/10/03 11:08:07;;;;;;;2.20;1.20;;;;;;;15.26;55.73;98553.65;25058;1319;3053260;-68
2022/10/03 11:11:18;;;;;;;1.40;1.10;;;;;;;15.11;55.65;98548.84;25091;1319;3049514;-72
2022/10/03 11:14:37;;;;;;;1.20;0.80;;;;;;;15.12;56.09;98542.09;25085;1319;3068160;-69
2022/10/03 11:17:28;;;;;;;2.90;1.50;;;;;;;14.83;54.38;98560.77;25684;1317;3049742;-70
2022/10/03 11:20:39;;;;;;;4.00;1.20;;;;;;;14.86;54.53;98552.80;25834;1319;3053565;-72
2022/10/03 11:23:17;;;;;;;2.60;1.10;;;;;;;14.89;53.79;98558.45;25829;1319;3053338;-71
2022/10/03 11:26:12;;;;;;;3.70;1.20;;;;;;;15.05;53.37;98559.23;25651;1319;3056971;-73
2022/10/03 11:28:57;;;;;;;3.40;1.00;;;;;;;15.21;52.33;98562.77;25291;1319;3049370;-67
2022/10/03 11:31:54;;;;;;;7.60;1.20;;;;;;;15.26;51.16;98565.78;25118;1319;3055478;-71
2022/10/03 11:34:35;;;;;;;2.00;1.00;;;;;;;15.18;51.78;98565.29;25120;1318;3053913;-71
2022/10/03 11:37:06;;;;;;;6.00;1.10;;;;;;;15.24;51.42;98569.02;25079;1319;3069900;-71
2022/10/03 11:39:57;;;;;;;2.50;1.20;;;;;;;15.38;50.97;98563.04;25130;1319;3026568;-73
2022/10/03 11:43:05;;;;;;;4.30;1.50;;;;;;;15.56;50.63;98559.92;25074;1319;3052270;-71
2022/10/03 11:45:59;;;;;;;2.40;1.00;;;;;;;15.65;51.11;98560.52;25085;1319;3055514;-69
2022/10/03 11:48:41;;;;;;;1.90;1.00;;;;;;;15.74;51.83;98561.55;25210;1318;3057382;-73
2022/10/03 11:51:14;;;;;;;2.40;1.30;;;;;;;15.88;52.02;98556.19;25173;1319;3054648;-72
2022/10/03 11:53:53;;;;;;;2.70;1.50;;;;;;;15.95;51.57;98566.81;25290;1319;3055524;-76
2022/10/03 11:56:54;;;;;;;3.10;1.60;;;;;;;15.98;51.40;98565.52;25239;1319;3052097;-73
2022/10/03 11:59:41;;;;;;;4.20;1.50;;;;;;;15.89;51.45;98575.22;25108;1319;3068463;-67
2022/10/03 12:02:41;;;;;;;2.70;1.30;;;;;;;15.80;51.77;98565.73;25149;1319;3050492;-73
2022/10/03 12:05:18;;;;;;;7.20;1.50;;;;;;;15.84;52.08;98565.44;25172;1319;3053773;-66
2022/10/03 12:11:25;;;;;;;3.80;1.60;;;;;;;15.94;52.41;98559.02;25147;1319;3058114;-73
2022/10/03 12:13:57;;;;;;;3.40;0.90;;;;;;;16.42;51.96;98557.51;25095;1324;3049741;-72
2022/10/03 12:17:07;;;;;;;1.80;1.10;;;;;;;16.76;51.04;98572.97;25295;1316;3028155;-72
2022/10/03 12:19:48;;;;;;;2.50;1.10;;;;;;;16.48;49.79;98571.91;25103;1319;3051272;-70
2022/10/03 12:22:47;;;;;;;4.10;1.00;;;;;;;16.25;50.32;98558.45;25088;1319;3068546;-71
2022/10/03 12:25:29;;;;;;;3.40;1.30;;;;;;;16.22;50.59;98565.45;25198;1315;3049452;-69
2022/10/03 12:28:15;;;;;;;6.10;1.70;;;;;;;16.04;50.84;98554.09;25271;1316;3052411;-72
2022/10/03 12:30:54;;;;;;;5.30;1.80;;;;;;;16.23;50.09;98553.36;25227;1316;3055555;-68
2022/10/03 12:33:49;;;;;;;2.80;1.30;;;;;;;16.41;49.83;98549.48;25153;1317;3055414;-71
2022/10/03 12:36:24;;;;;;;2.90;1.10;;;;;;;16.46;49.72;98550.35;25181;1316;3050852;-70
2022/10/03 12:39:13;;;;;;;4.30;1.40;;;;;;;16.71;49.68;98555.16;25182;1315;3052683;-72
2022/10/03 12:41:52;;;;;;;2.80;1.10;;;;;;;16.54;48.58;98562.65;25215;1315;3051057;-70
2022/10/03 12:44:55;;;;;;;2.70;1.10;;;;;;;16.54;48.66;98557.15;25282;1316;3068532;-66
2022/10/03 12:47:43;;;;;;;1.70;0.90;;;;;;;16.71;49.05;98560.56;25366;1316;3048681;-70
2022/10/03 12:50:16;;;;;;;3.00;1.30;;;;;;;16.82;48.95;98555.27;25465;1315;3052741;-69
2022/10/03 12:53:02;;;;;;;2.00;0.90;;;;;;;16.66;48.96;98568.50;25322;1314;3053907;-71
2022/10/03 12:55:35;;;;;;;2.40;0.90;;;;;;;16.91;48.94;98552.98;25184;1316;3056586;-69
2022/10/03 12:58:11;;;;;;;1.80;0.90;;;;;;;17.05;48.55;98552.27;25136;1316;3049945;-70
2022/10/03 13:00:50;;;;;;;2.60;0.80;;;;;;;17.05;48.61;98554.68;25142;1316;3053287;-69
2022/10/03 13:04:12;;;;;;;2.50;1.00;;;;;;;16.92;49.33;98554.29;25296;1316;3051435;-67
2022/10/03 13:07:04;;;;;;;2.50;1.00;;;;;;;17.06;48.51;98547.77;25176;1316;3069965;-71
2022/10/03 13:09:56;;;;;;;3.50;0.80;;;;;;;17.19;48.69;98547.46;25166;1316;3049651;-71
2022/10/03 13:12:55;;;;;;;1.80;1.00;;;;;;;17.30;47.84;98545.26;25187;1314;3052636;-68